Time;durP1;ratioP1;P1;durP2;ratioP2;P2;SDS_P1;SDS_P2;PMS_P1;PMS_P2;Temp;Humidity;BMP_temperature;BMP_pressure;BME280_temperature;BME280_humidity;BME280_pressure;Samples;Min_cycle;Max_cycle;Signal;HPM_P1;HPM_P2
2022/09/23 00:02:15;;;;;;;2.72;1.75;;;13.80;99.90;;;;;;1882648;75;21065;-85
2022/09/23 00:05:11;;;;;;;2.80;1.60;;;13.90;99.90;;;;;;1885425;75;21692;-85
2022/09/23 00:08:04;;;;;;;2.92;1.65;;;13.90;99.90;;;;;;1886276;75;21067;-84
2022/09/23 00:10:57;;;;;;;5.33;1.40;;;14.00;99.90;;;;;;1894634;75;21140;-84
2022/09/23 00:13:51;;;;;;;3.12;1.60;;;14.10;99.90;;;;;;1880931;75;21212;-84
2022/09/23 00:16:42;;;;;;;2.75;1.67;;;14.10;99.90;;;;;;1889016;75;21104;-84
2022/09/23 00:19:34;;;;;;;3.42;1.70;;;14.10;99.90;;;;;;1891422;75;21132;-84
2022/09/23 00:22:25;;;;;;;3.00;1.82;;;14.10;99.90;;;;;;1893741;75;21138;-84
2022/09/23 00:25:16;;;;;;;3.27;1.87;;;14.00;99.90;;;;;;1897690;75;21722;-84
2022/09/23 00:28:07;;;;;;;4.42;1.82;;;14.00;99.90;;;;;;1877876;75;21049;-84
2022/09/23 00:31:02;;;;;;;4.28;1.75;;;14.00;99.90;;;;;;1891295;75;21127;-84
2022/09/23 00:33:58;;;;;;;2.92;1.90;;;13.90;99.90;;;;;;1885335;75;21559;-80
2022/09/23 00:36:49;;;;;;;5.37;1.82;;;14.00;99.90;;;;;;1893223;75;21143;-81
2022/09/23 00:39:41;;;;;;;6.45;1.85;;;14.00;99.90;;;;;;1886332;75;21066;-80
2022/09/23 00:42:32;;;;;;;3.58;1.65;;;13.90;99.90;;;;;;1893923;75;21160;-80
2022/09/23 00:48:05;;;;;;;3.33;1.80;;;13.90;99.90;;;;;;1954336;72;22142;-80
2022/09/23 00:50:57;;;;;;;4.33;2.10;;;14.00;99.90;;;;;;1917287;73;21143;-82
2022/09/23 00:53:50;;;;;;;4.42;2.17;;;14.00;99.90;;;;;;1918138;73;21250;-80
2022/09/23 00:56:41;;;;;;;2.92;2.08;;;14.00;99.90;;;;;;1921429;73;21569;-81
2022/09/23 00:59:33;;;;;;;2.98;2.00;;;13.90;99.90;;;;;;1921168;73;21131;-80
2022/09/23 01:02:25;;;;;;;2.80;1.98;;;13.90;99.90;;;;;;1924504;73;21135;-80
2022/09/23 01:08:00;;;;;;;3.17;2.00;;;13.80;99.90;;;;;;1933540;72;22185;-80
2022/09/23 01:10:54;;;;;;;6.05;2.52;;;13.90;99.90;;;;;;1892502;75;21056;-80
2022/09/23 01:13:50;;;;;;;3.33;2.30;;;13.80;99.90;;;;;;1893538;75;21138;-80
2022/09/23 01:16:45;;;;;;;3.90;2.17;;;13.80;99.90;;;;;;1900482;75;21103;-80
2022/09/23 01:19:48;;;;;;;3.40;2.08;;;13.70;99.90;;;;;;1895227;75;21392;-86
2022/09/23 01:22:43;;;;;;;5.05;2.20;;;13.70;99.90;;;;;;1894251;75;21058;-85
2022/09/23 01:25:44;;;;;;;3.87;1.75;;;13.60;99.90;;;;;;1905060;74;21039;-84
2022/09/23 01:28:49;;;;;;;4.58;2.00;;;13.60;99.90;;;;;;1905486;75;21113;-84
2022/09/23 01:34:24;;;;;;;4.20;1.90;;;13.60;99.90;;;;;;1925871;72;23010;-83
2022/09/23 01:37:19;;;;;;;3.62;1.98;;;13.50;99.90;;;;;;1899626;73;21600;-83
2022/09/23 01:40:15;;;;;;;2.58;1.72;;;13.50;99.90;;;;;;1896524;74;21180;-84
2022/09/23 01:43:10;;;;;;;5.53;2.05;;;13.50;99.90;;;;;;1901798;74;21162;-84
2022/09/23 01:46:04;;;;;;;4.42;2.30;;;13.40;99.90;;;;;;1895119;74;21721;-84
2022/09/23 01:49:00;;;;;;;3.90;2.47;;;13.40;99.90;;;;;;1899005;74;21573;-84
2022/09/23 01:51:55;;;;;;;3.60;1.60;;;13.40;99.90;;;;;;1898624;74;21204;-84
2022/09/23 01:54:50;;;;;;;4.40;1.82;;;13.40;99.90;;;;;;1909761;74;21166;-81
2022/09/23 01:57:44;;;;;;;4.08;1.67;;;13.40;99.90;;;;;;1899667;74;21279;-80
2022/09/23 02:00:39;;;;;;;4.90;1.90;;;13.40;99.90;;;;;;1890588;74;21062;-80
2022/09/23 02:03:34;;;;;;;4.05;1.90;;;13.40;99.90;;;;;;1892851;74;21162;-80
2022/09/23 02:06:29;;;;;;;2.65;1.40;;;13.40;99.90;;;;;;1893938;74;21464;-80
2022/09/23 02:09:24;;;;;;;4.12;1.70;;;13.40;99.90;;;;;;1891663;74;21147;-80
2022/09/23 02:12:19;;;;;;;3.65;1.75;;;13.40;99.90;;;;;;1896466;74;21231;-80
2022/09/23 02:17:51;;;;;;;2.17;1.67;;;13.40;99.90;;;;;;1911129;72;22825;-80
2022/09/23 02:20:44;;;;;;;2.35;1.50;;;13.30;99.90;;;;;;1906107;73;21095;-82
2022/09/23 02:23:41;;;;;;;2.70;1.62;;;13.30;99.90;;;;;;1909100;74;21514;-80
2022/09/23 02:26:35;;;;;;;4.85;1.92;;;13.30;99.90;;;;;;1888878;74;21076;-80
2022/09/23 02:29:29;;;;;;;3.47;2.05;;;13.30;99.90;;;;;;1895690;74;21141;-80
2022/09/23 02:32:26;;;;;;;7.80;2.02;;;13.20;99.90;;;;;;1900435;73;21252;-80
2022/09/23 02:35:22;;;;;;;3.52;1.87;;;13.20;99.90;;;;;;1840799;76;21149;-80
2022/09/23 02:38:18;;;;;;;4.85;1.70;;;13.20;99.90;;;;;;1896648;74;21154;-80
2022/09/23 02:41:13;;;;;;;5.45;2.05;;;13.10;99.90;;;;;;1892473;74;21121;-80
2022/09/23 02:44:08;;;;;;;2.27;1.62;;;13.10;99.90;;;;;;1903553;73;21061;-84
2022/09/23 02:46:59;;;;;;;1.65;1.42;;;13.10;99.90;;;;;;1900116;73;21108;-81
2022/09/23 02:49:55;;;;;;;3.95;1.92;;;13.10;99.90;;;;;;1905332;74;21210;-80
2022/09/23 02:52:46;;;;;;;4.50;2.00;;;13.00;99.90;;;;;;1903827;74;21161;-80
2022/09/23 02:55:40;;;;;;;4.45;1.98;;;13.00;99.90;;;;;;1901385;73;21060;-80
2022/09/23 02:58:31;;;;;;;2.62;1.80;;;13.00;99.90;;;;;;1904844;74;21580;-80
2022/09/23 03:01:31;;;;;;;3.20;1.75;;;13.00;99.90;;;;;;1911299;74;21097;-80
2022/09/23 03:04:24;;;;;;;4.35;1.87;;;13.00;99.90;;;;;;1900913;73;21150;-80
2022/09/23 03:07:19;;;;;;;4.20;2.10;;;13.00;99.90;;;;;;1898648;73;21237;-80
2022/09/23 03:10:13;;;;;;;3.58;1.82;;;13.00;99.90;;;;;;1901097;73;21118;-80
2022/09/23 03:13:10;;;;;;;2.25;1.80;;;13.00;99.90;;;;;;1894225;74;21485;-80
2022/09/23 03:16:05;;;;;;;2.10;1.80;;;13.00;99.90;;;;;;1911161;73;21052;-80
2022/09/23 03:19:01;;;;;;;4.30;1.75;;;13.10;99.90;;;;;;1902091;74;21136;-80
2022/09/23 03:21:59;;;;;;;2.70;2.22;;;13.00;99.90;;;;;;1905292;73;21159;-80
2022/09/23 03:24:52;;;;;;;2.30;1.77;;;13.00;99.90;;;;;;1902384;74;21131;-79
2022/09/23 03:27:46;;;;;;;4.30;1.92;;;12.90;99.90;;;;;;1905584;73;21409;-82
2022/09/23 03:30:39;;;;;;;3.02;1.80;;;12.90;99.90;;;;;;1896582;74;21129;-80
2022/09/23 03:33:32;;;;;;;3.27;1.70;;;12.90;99.90;;;;;;1885486;74;21123;-80
2022/09/23 03:39:08;;;;;;;3.98;1.77;;;12.70;99.90;;;;;;1940003;72;22609;-80
2022/09/23 03:42:02;;;;;;;5.03;1.90;;;12.70;99.90;;;;;;1903997;75;21051;-82
2022/09/23 03:44:56;;;;;;;4.72;1.75;;;12.70;99.90;;;;;;1901332;75;21129;-81
2022/09/23 03:47:47;;;;;;;3.42;1.80;;;12.70;99.90;;;;;;1896700;75;21227;-81
2022/09/23 03:50:38;;;;;;;2.35;1.80;;;12.70;99.90;;;;;;1882969;75;21084;-81
2022/09/23 03:53:30;;;;;;;3.30;2.00;;;12.70;99.90;;;;;;1893245;75;21584;-80
2022/09/23 03:56:22;;;;;;;4.30;1.75;;;12.70;99.90;;;;;;1900311;75;21055;-80
2022/09/23 03:59:13;;;;;;;5.58;1.90;;;12.70;99.90;;;;;;1901912;75;21042;-80
2022/09/23 04:02:06;;;;;;;3.27;1.75;;;12.70;99.90;;;;;;1908547;75;21102;-81
2022/09/23 04:07:36;;;;;;;2.77;1.75;;;12.60;99.90;;;;;;1924188;72;22611;-79
2022/09/23 04:10:27;;;;;;;3.20;1.90;;;12.50;99.90;;;;;;1905015;74;21144;-80
2022/09/23 04:15:59;;;;;;;3.20;1.92;;;12.50;99.90;;;;;;1947116;72;22147;-80
2022/09/23 04:18:51;;;;;;;4.25;2.20;;;12.50;99.90;;;;;;1917930;73;21213;-80
2022/09/23 04:24:25;;;;;;;3.12;2.17;;;12.50;99.90;;;;;;1933551;72;22123;-80
2022/09/23 04:27:17;;;;;;;3.33;2.10;;;12.60;99.90;;;;;;1909837;73;21185;-81
2022/09/23 04:32:49;;;;;;;2.72;1.95;;;12.70;99.90;;;;;;1933167;72;22344;-80
2022/09/23 04:35:41;;;;;;;2.95;2.00;;;12.70;99.90;;;;;;1898087;75;21136;-82
2022/09/23 04:38:33;;;;;;;3.08;2.00;;;12.70;99.90;;;;;;1900580;75;21155;-82
2022/09/23 04:41:24;;;;;;;6.80;2.40;;;12.70;99.90;;;;;;1902499;75;21063;-80
2022/09/23 04:44:16;;;;;;;4.80;2.00;;;12.80;99.90;;;;;;1897254;75;21669;-81
2022/09/23 04:47:08;;;;;;;3.40;2.50;;;12.80;99.90;;;;;;1908261;75;21155;-80
2022/09/23 04:52:39;;;;;;;3.92;2.17;;;12.70;99.90;;;;;;1928339;72;22140;-80
2022/09/23 04:55:30;;;;;;;2.50;2.12;;;12.70;99.90;;;;;;1891465;75;21083;-82
2022/09/23 04:58:24;;;;;;;4.95;2.17;;;12.60;99.90;;;;;;1892264;75;21236;-81
2022/09/23 05:01:17;;;;;;;4.47;2.33;;;12.60;99.90;;;;;;1882695;75;21203;-80
2022/09/23 05:04:13;;;;;;;4.58;2.33;;;12.60;99.90;;;;;;1889308;75;21099;-81
2022/09/23 05:07:04;;;;;;;6.00;2.12;;;12.50;99.90;;;;;;1885028;75;21132;-81
2022/09/23 05:09:56;;;;;;;2.58;1.57;;;12.50;99.90;;;;;;1885218;75;21125;-81
2022/09/23 05:12:48;;;;;;;3.67;1.92;;;12.50;99.90;;;;;;1896389;75;21200;-80
2022/09/23 05:15:41;;;;;;;5.08;1.92;;;12.40;99.90;;;;;;1883381;75;21524;-80
2022/09/23 05:18:34;;;;;;;5.45;2.33;;;12.50;99.90;;;;;;1893808;75;21060;-81
2022/09/23 05:21:27;;;;;;;3.67;1.85;;;12.60;99.90;;;;;;1894940;75;21121;-81
2022/09/23 05:24:19;;;;;;;4.65;2.12;;;12.60;99.90;;;;;;1885307;75;21212;-80
2022/09/23 05:29:51;;;;;;;2.72;2.20;;;12.50;99.90;;;;;;1938352;72;22253;-80
2022/09/23 05:32:43;;;;;;;3.45;2.20;;;12.50;99.90;;;;;;1900557;73;21165;-81
2022/09/23 05:35:34;;;;;;;6.12;1.95;;;12.50;99.90;;;;;;1914651;74;21563;-81
2022/09/23 05:38:26;;;;;;;4.53;2.35;;;12.50;99.90;;;;;;1912005;74;21161;-80
2022/09/23 05:41:20;;;;;;;2.50;2.00;;;12.50;99.90;;;;;;1915932;73;21147;-83
2022/09/23 05:44:11;;;;;;;3.70;1.92;;;12.40;99.90;;;;;;1911888;73;21054;-81
2022/09/23 05:49:50;;;;;;;2.95;1.90;;;12.50;99.90;;;;;;1921648;72;22271;-81
2022/09/23 05:52:43;;;;;;;9.70;2.75;;;12.60;99.90;;;;;;1899901;74;21146;-82
2022/09/23 05:55:34;;;;;;;3.67;1.95;;;12.60;99.90;;;;;;1897871;75;21106;-81
2022/09/23 05:58:27;;;;;;;3.98;2.12;;;12.60;99.90;;;;;;1899417;75;21107;-81
2022/09/23 06:01:20;;;;;;;3.72;1.85;;;12.60;99.90;;;;;;1907979;75;21225;-80
2022/09/23 06:04:13;;;;;;;2.80;2.37;;;12.60;99.90;;;;;;1899559;75;21576;-80
2022/09/23 06:07:05;;;;;;;3.58;1.98;;;12.60;99.90;;;;;;1898029;75;21047;-81
2022/09/23 06:09:56;;;;;;;3.90;1.82;;;12.70;99.90;;;;;;1897984;74;21157;-80
2022/09/23 06:12:47;;;;;;;6.08;2.42;;;12.80;99.90;;;;;;1893862;75;21140;-81
2022/09/23 06:15:39;;;;;;;5.92;2.50;;;12.70;99.90;;;;;;1893152;75;21110;-81
2022/09/23 06:18:30;;;;;;;6.42;2.35;;;12.80;99.90;;;;;;1898004;75;21114;-81
2022/09/23 06:21:22;;;;;;;4.17;2.33;;;12.80;99.90;;;;;;1900303;75;21169;-81
2022/09/23 06:24:13;;;;;;;4.50;2.20;;;12.80;99.90;;;;;;1896111;75;21173;-81
2022/09/23 06:27:06;;;;;;;6.53;2.58;;;12.90;99.90;;;;;;1897001;75;21152;-80
2022/09/23 06:29:58;;;;;;;3.37;2.37;;;12.90;99.90;;;;;;1898588;75;21165;-80
2022/09/23 06:32:51;;;;;;;5.50;2.58;;;12.90;99.90;;;;;;1890267;75;21102;-82
2022/09/23 06:35:42;;;;;;;3.60;2.15;;;13.00;99.90;;;;;;1898257;75;21118;-81
2022/09/23 06:38:35;;;;;;;8.40;2.45;;;13.00;99.90;;;;;;1896075;74;21111;-81
2022/09/23 06:41:26;;;;;;;5.95;2.67;;;13.10;99.90;;;;;;1898374;75;21175;-81
2022/09/23 06:44:18;;;;;;;4.45;2.55;;;13.20;99.90;;;;;;1901598;74;21123;-80
2022/09/23 06:47:09;;;;;;;4.70;3.08;;;13.20;99.90;;;;;;1897308;75;21182;-81
2022/09/23 06:50:01;;;;;;;6.50;2.87;;;13.20;99.90;;;;;;1915551;74;21569;-81
2022/09/23 06:52:54;;;;;;;4.45;2.70;;;13.30;99.90;;;;;;1901631;74;21134;-81
2022/09/23 06:55:46;;;;;;;5.65;2.83;;;13.40;99.90;;;;;;1880159;75;21056;-82
2022/09/23 06:58:38;;;;;;;6.97;2.30;;;13.40;99.90;;;;;;1873257;76;21592;-80
2022/09/23 07:01:32;;;;;;;4.58;3.05;;;13.50;99.90;;;;;;1904213;74;21119;-80
2022/09/23 07:04:23;;;;;;;4.33;2.47;;;13.60;99.90;;;;;;1841481;76;21185;-80
2022/09/23 07:07:17;;;;;;;5.78;2.60;;;13.70;99.90;;;;;;1908207;74;21265;-78
2022/09/23 07:10:11;;;;;;;4.03;2.65;;;13.70;99.90;;;;;;1899782;75;21181;-79
2022/09/23 07:13:03;;;;;;;5.87;2.40;;;13.80;99.90;;;;;;1895906;75;21087;-78
2022/09/23 07:15:57;;;;;;;7.22;2.62;;;13.80;99.90;;;;;;1905927;75;21104;-78
2022/09/23 07:18:48;;;;;;;3.45;2.45;;;13.90;99.90;;;;;;1906796;74;21138;-78
2022/09/23 07:24:20;;;;;;;4.83;2.17;;;14.20;99.90;;;;;;1944305;72;22130;-78
2022/09/23 07:27:13;;;;;;;4.33;2.15;;;14.30;99.90;;;;;;1910909;74;21168;-78
2022/09/23 07:30:06;;;;;;;4.83;2.80;;;14.30;99.90;;;;;;1884749;75;21062;-78
2022/09/23 07:32:58;;;;;;;6.72;3.20;;;14.40;99.90;;;;;;1915747;75;21538;-78
2022/09/23 07:35:49;;;;;;;4.05;2.77;;;14.40;99.90;;;;;;1915141;72;21338;-74
2022/09/23 07:38:41;;;;;;;8.08;2.70;;;14.50;99.90;;;;;;1899011;74;21049;-75
2022/09/23 07:41:36;;;;;;;4.37;2.55;;;14.60;99.90;;;;;;1868899;75;21093;-74
2022/09/23 07:44:30;;;;;;;6.85;2.80;;;14.70;99.90;;;;;;1883821;75;21076;-74
2022/09/23 07:50:01;;;;;;;4.42;2.62;;;14.70;99.90;;;;;;1951101;72;22125;-75
2022/09/23 07:52:52;;;;;;;4.12;2.62;;;14.90;99.90;;;;;;1927353;73;21103;-76
2022/09/23 07:58:23;;;;;;;5.28;2.30;;;15.00;99.90;;;;;;1934752;72;22316;-79
2022/09/23 08:01:15;;;;;;;5.45;2.58;;;15.10;99.90;;;;;;1889624;75;21108;-77
2022/09/23 08:04:08;;;;;;;3.30;2.15;;;15.20;99.90;;;;;;1890804;75;21110;-78
2022/09/23 08:07:02;;;;;;;7.58;2.52;;;15.30;99.90;;;;;;1890368;73;21222;-78
2022/09/23 08:09:53;;;;;;;5.42;2.30;;;15.50;99.90;;;;;;1893690;75;21090;-78
2022/09/23 08:15:24;;;;;;;2.42;2.00;;;15.70;99.90;;;;;;1936275;72;22354;-78
2022/09/23 08:18:15;;;;;;;8.08;2.40;;;15.80;99.90;;;;;;1892874;75;21147;-79
2022/09/23 08:21:07;;;;;;;7.60;3.27;;;15.80;99.90;;;;;;1902733;75;21141;-77
2022/09/23 08:24:00;;;;;;;7.72;2.70;;;15.90;99.90;;;;;;1900356;75;21220;-78
2022/09/23 08:26:52;;;;;;;5.15;2.50;;;15.90;99.90;;;;;;1904080;75;21067;-78
2022/09/23 08:29:44;;;;;;;6.45;2.92;;;16.00;99.90;;;;;;1900776;75;21141;-78
2022/09/23 08:32:36;;;;;;;7.92;2.92;;;16.00;99.90;;;;;;1900226;75;21197;-77
2022/09/23 08:35:27;;;;;;;4.53;2.47;;;16.10;99.90;;;;;;1898266;73;21102;-77
2022/09/23 08:38:20;;;;;;;5.85;2.20;;;16.10;99.90;;;;;;1889398;75;21150;-77
2022/09/23 08:41:15;;;;;;;6.08;3.25;;;16.20;99.90;;;;;;1908369;75;21096;-77
2022/09/23 08:44:10;;;;;;;5.22;2.47;;;16.20;99.90;;;;;;1906494;75;21191;-77
2022/09/23 08:47:06;;;;;;;4.97;2.30;;;16.30;99.90;;;;;;1898221;74;21106;-77
2022/09/23 08:50:04;;;;;;;6.35;2.52;;;16.30;99.90;;;;;;1898878;75;21523;-77
2022/09/23 08:52:58;;;;;;;7.37;3.37;;;16.50;99.90;;;;;;1891919;73;22273;-77
2022/09/23 08:55:53;;;;;;;4.25;2.90;;;16.50;99.90;;;;;;1898017;75;21558;-77
2022/09/23 08:58:51;;;;;;;7.97;2.75;;;16.60;99.90;;;;;;1898025;75;21660;-77
2022/09/23 09:01:46;;;;;;;5.50;2.95;;;16.70;99.90;;;;;;1906405;74;22171;-77
2022/09/23 09:04:43;;;;;;;4.22;2.37;;;16.80;99.90;;;;;;1898952;75;21179;-77
2022/09/23 09:07:38;;;;;;;4.65;2.40;;;17.00;99.90;;;;;;1902308;75;21106;-77
2022/09/23 09:10:33;;;;;;;3.42;2.60;;;17.20;99.90;;;;;;1904825;74;21125;-77
2022/09/23 09:13:31;;;;;;;5.00;3.10;;;17.30;99.90;;;;;;1901618;75;21177;-77
2022/09/23 09:16:26;;;;;;;;;;;17.40;99.90;;;;;;1918085;75;21195;-77
2022/09/23 09:19:22;;;;;;;4.75;2.65;;;17.60;99.90;;;;;;1896379;75;20629;-77
2022/09/23 09:22:17;;;;;;;5.58;2.15;;;17.80;99.90;;;;;;1908129;75;21132;-77
2022/09/23 09:27:47;;;;;;;4.67;2.52;;;17.90;99.90;;;;;;1929607;72;22224;-78
2022/09/23 09:30:39;;;;;;;3.27;2.20;;;18.00;99.90;;;;;;1887809;75;21103;-77
2022/09/23 09:33:38;;;;;;;4.72;2.10;;;18.20;99.90;;;;;;1904486;75;21161;-77
2022/09/23 09:36:38;;;;;;;3.60;2.40;;;18.20;99.90;;;;;;1896089;75;21164;-77
2022/09/23 09:39:30;;;;;;;4.22;2.12;;;18.30;99.90;;;;;;1892067;75;21098;-77
2022/09/23 09:42:25;;;;;;;5.12;2.00;;;18.30;99.90;;;;;;1912670;75;21082;-77
2022/09/23 09:45:23;;;;;;;4.45;2.05;;;18.30;99.90;;;;;;1910458;75;21092;-77
2022/09/23 09:48:18;;;;;;;4.70;2.12;;;18.40;99.90;;;;;;1903737;75;21076;-77
2022/09/23 09:51:28;;;;;;;2.95;1.98;;;18.40;99.90;;;;;;1887810;75;21086;-77
2022/09/23 09:54:25;;;;;;;4.78;2.00;;;18.40;99.90;;;;;;1883596;75;21067;-77
2022/09/23 09:57:30;;;;;;;4.50;2.15;;;18.50;99.90;;;;;;1883859;75;21160;-79
2022/09/23 10:03:35;;;;;;;4.58;2.40;;;18.70;99.90;;;;;;1945811;72;22202;-78
2022/09/23 10:06:27;;;;;;;3.98;2.05;;;18.80;99.90;;;;;;1884671;75;21106;-78
2022/09/23 10:09:20;;;;;;;7.90;1.70;;;18.90;99.90;;;;;;1883276;76;21245;-78
2022/09/23 10:12:17;;;;;;;4.45;2.08;;;19.00;99.90;;;;;;1886318;75;21133;-77
2022/09/23 10:15:22;;;;;;;4.60;2.02;;;19.10;99.90;;;;;;1882385;73;21539;-77
2022/09/23 10:18:19;;;;;;;3.37;2.00;;;19.10;99.90;;;;;;1889417;75;21576;-77
2022/09/23 10:21:13;;;;;;;6.25;1.77;;;19.20;99.90;;;;;;1891639;75;21166;-77
2022/09/23 10:24:07;;;;;;;3.40;2.10;;;19.20;99.90;;;;;;1883688;76;21145;-78
2022/09/23 10:27:01;;;;;;;3.85;2.20;;;19.20;99.90;;;;;;1904494;75;21106;-77
2022/09/23 10:29:54;;;;;;;3.62;1.72;;;19.20;99.90;;;;;;1847436;77;21189;-75
2022/09/23 10:32:46;;;;;;;4.47;1.65;;;19.20;99.90;;;;;;1895174;75;22225;-75
2022/09/23 10:35:39;;;;;;;3.95;1.75;;;19.20;99.90;;;;;;1894826;75;21135;-78
2022/09/23 10:38:30;;;;;;;3.95;1.50;;;19.20;99.90;;;;;;1909321;75;21059;-77
2022/09/23 10:47:27;;;;;;;4.78;1.90;;;19.50;99.90;;;;;;1932901;72;22223;-77
2022/09/23 10:50:30;;;;;;;6.08;1.60;;;19.60;99.90;;;;;;1897266;74;21124;-78
2022/09/23 10:53:27;;;;;;;3.62;1.52;;;19.70;99.90;;;;;;1912921;74;21103;-77
2022/09/23 10:56:22;;;;;;;2.40;1.50;;;19.80;99.90;;;;;;1906099;75;21197;-76
2022/09/23 10:59:39;;;;;;;2.92;1.42;;;20.00;99.90;;;;;;1903043;75;21100;-76
2022/09/23 11:02:43;;;;;;;4.97;1.65;;;20.10;99.90;;;;;;1917136;75;21232;-76
2022/09/23 11:08:28;;;;;;;4.47;1.67;;;20.20;99.90;;;;;;1931139;72;22192;-76
2022/09/23 11:11:26;;;;;;;2.77;1.37;;;20.30;99.90;;;;;;1909140;74;21105;-76
2022/09/23 11:14:29;;;;;;;;;;;20.40;99.90;;;;;;1907407;74;21163;-76
2022/09/23 11:17:31;;;;;;;1.98;1.70;;;20.50;99.90;;;;;;1899835;74;20211;-76
2022/09/23 11:20:35;;;;;;;4.37;1.70;;;20.50;99.90;;;;;;1886241;74;21093;-76
2022/09/23 11:26:44;;;;;;;4.47;1.87;;;20.70;99.90;;;;;;1946869;72;27952;-78
2022/09/23 11:29:52;;;;;;;2.70;1.60;;;21.00;99.90;;;;;;1905579;73;21071;-78
2022/09/23 11:36:02;;;;;;;1.87;1.60;;;21.10;99.90;;;;;;1975955;72;22106;-76
2022/09/23 11:38:56;;;;;;;7.05;1.40;;;21.30;99.90;;;;;;1921283;73;21204;-77
2022/09/23 11:41:50;;;;;;;4.08;1.57;;;21.40;99.90;;;;;;1939972;73;21576;-77
2022/09/23 11:47:27;;;;;;;3.90;1.27;;;21.60;99.90;;;;;;1944665;72;22205;-76
2022/09/23 11:50:24;;;;;;;2.60;1.32;;;21.80;99.90;;;;;;1926204;73;21131;-76
2022/09/23 11:53:18;;;;;;;5.25;1.37;;;21.80;99.90;;;;;;1925000;73;21179;-77
2022/09/23 11:56:14;;;;;;;2.10;1.35;;;21.90;99.90;;;;;;1917152;75;21190;-77
2022/09/23 11:59:11;;;;;;;2.55;1.20;;;21.90;99.90;;;;;;1917606;75;21075;-76
2022/09/23 12:02:06;;;;;;;7.47;2.27;;;21.90;99.90;;;;;;1917269;75;21058;-76
2022/09/23 12:05:03;;;;;;;4.55;1.50;;;22.00;99.90;;;;;;1917373;73;21151;-76
2022/09/23 12:07:58;;;;;;;4.28;1.57;;;22.10;99.90;;;;;;1917270;75;21131;-76
2022/09/23 12:10:54;;;;;;;2.83;1.25;;;22.20;99.90;;;;;;1917364;73;21065;-76
2022/09/23 12:13:50;;;;;;;3.10;1.30;;;22.20;99.90;;;;;;1931891;73;21173;-76
2022/09/23 12:17:05;;;;;;;3.27;1.55;;;22.10;99.90;;;;;;1917204;75;21116;-77
2022/09/23 12:20:09;;;;;;;3.35;1.62;;;21.90;99.90;;;;;;1917360;75;21051;-77
2022/09/23 12:23:07;;;;;;;2.75;1.27;;;21.90;99.90;;;;;;1940293;73;21201;-76
2022/09/23 12:26:00;;;;;;;4.30;1.30;;;22.00;99.90;;;;;;1917698;73;21428;-76
2022/09/23 12:28:56;;;;;;;1.50;1.20;;;22.00;99.90;;;;;;1932213;73;21127;-76
2022/09/23 12:31:48;;;;;;;3.42;1.50;;;22.10;99.90;;;;;;1917159;75;21055;-77
2022/09/23 12:34:46;;;;;;;1.60;1.20;;;22.20;99.90;;;;;;1917318;75;21160;-76
2022/09/23 12:37:39;;;;;;;3.08;1.52;;;22.30;99.90;;;;;;1917297;75;21125;-76
2022/09/23 12:40:33;;;;;;;6.30;2.55;;;22.50;99.90;;;;;;1917162;75;21122;-76
2022/09/23 12:46:28;;;;;;;3.15;1.40;;;22.70;99.90;;;;;;1926168;72;22304;-76
2022/09/23 12:49:27;;;;;;;5.42;1.32;;;22.70;99.90;;;;;;1915464;75;21095;-76
2022/09/23 12:52:28;;;;;;;3.98;1.52;;;22.60;99.90;;;;;;1883202;75;21242;-78
2022/09/23 12:55:50;;;;;;;3.30;1.65;;;22.70;99.90;;;;;;1902393;75;21095;-76
2022/09/23 12:58:50;;;;;;;2.75;1.32;;;22.90;99.90;;;;;;1906534;75;21063;-76
2022/09/23 13:01:42;;;;;;;2.37;1.45;;;23.00;99.90;;;;;;1897786;75;21102;-77
2022/09/23 13:07:57;;;;;;;4.75;1.80;;;23.10;99.90;;;;;;1898144;75;21027;-77
2022/09/23 13:10:51;;;;;;;3.25;1.60;;;23.30;99.90;;;;;;1906619;75;21121;-76
2022/09/23 13:13:45;;;;;;;2.98;1.30;;;23.40;99.90;;;;;;1901975;75;21125;-77
2022/09/23 13:16:39;;;;;;;3.58;1.50;;;23.50;99.90;;;;;;1897584;75;21043;-76
2022/09/23 13:19:46;;;;;;;7.20;2.02;;;23.60;99.90;;;;;;1895081;75;21109;-77
2022/09/23 13:23:24;;;;;;;6.45;1.47;;;23.60;99.90;;;;;;1911065;75;21442;-77
2022/09/23 13:26:16;;;;;;;;;;;23.70;99.90;;;;;;1899003;75;21060;-77
2022/09/23 13:29:12;;;;;;;3.50;1.40;;;23.70;99.90;;;;;;1897750;75;20155;-77
2022/09/23 13:32:07;;;;;;;1.62;1.30;;;23.70;99.90;;;;;;1890192;73;21066;-77
2022/09/23 13:35:00;;;;;;;6.37;1.50;;;23.70;99.90;;;;;;1924071;73;21138;-77
2022/09/23 13:37:58;;;;;;;2.42;1.30;;;23.70;99.90;;;;;;1896706;73;21097;-76
2022/09/23 13:41:02;;;;;;;2.40;1.35;;;23.80;99.90;;;;;;1897680;75;21051;-76
2022/09/23 13:43:57;;;;;;;2.75;1.55;;;23.80;99.90;;;;;;1905766;75;21605;-76
2022/09/23 13:46:51;;;;;;;4.92;1.50;;;23.70;99.90;;;;;;1890120;73;21238;-76
2022/09/23 13:49:42;;;;;;;4.33;1.20;;;23.70;99.90;;;;;;1905435;75;21561;-76
2022/09/23 13:52:35;;;;;;;2.62;1.47;;;23.90;99.90;;;;;;1900931;75;21116;-76
2022/09/23 13:55:32;;;;;;;3.05;1.30;;;23.80;99.90;;;;;;1887926;75;21134;-76
2022/09/23 13:58:24;;;;;;;3.58;1.60;;;23.80;99.90;;;;;;1891971;73;21806;-76
2022/09/23 14:01:24;;;;;;;5.55;1.32;;;23.50;99.90;;;;;;1954389;73;21113;-76
2022/09/23 14:04:25;;;;;;;2.15;1.22;;;23.50;99.90;;;;;;1895487;75;21056;-76
2022/09/23 14:07:18;;;;;;;2.45;1.05;;;23.50;99.90;;;;;;1884649;75;21124;-76
2022/09/23 14:10:17;;;;;;;4.67;1.67;;;23.20;99.90;;;;;;1897466;75;21055;-76
2022/09/23 14:13:14;;;;;;;4.62;1.27;;;23.20;99.90;;;;;;1896432;73;21474;-78
2022/09/23 14:16:07;;;;;;;2.87;1.10;;;23.20;99.90;;;;;;1910484;75;21184;-76
2022/09/23 14:19:00;;;;;;;1.75;1.20;;;23.20;99.90;;;;;;1905766;75;21157;-76
2022/09/23 14:21:53;;;;;;;4.22;1.30;;;23.20;99.90;;;;;;1887982;75;21114;-77
2022/09/23 14:24:45;;;;;;;2.20;1.25;;;23.20;99.90;;;;;;1897176;75;21091;-77
2022/09/23 14:27:38;;;;;;;2.90;1.32;;;23.20;99.90;;;;;;1886222;75;21062;-77
2022/09/23 14:30:30;;;;;;;3.35;1.20;;;23.30;99.90;;;;;;1888822;73;21454;-76
2022/09/23 14:33:25;;;;;;;1.92;1.20;;;23.30;99.90;;;;;;1900190;73;21110;-77
2022/09/23 14:39:29;;;;;;;3.80;1.25;;;23.50;99.90;;;;;;1899778;75;21169;-77
2022/09/23 14:42:21;;;;;;;2.25;1.22;;;23.70;99.90;;;;;;1905892;75;21160;-77
2022/09/23 14:45:19;;;;;;;2.22;1.15;;;24.10;99.90;;;;;;1903126;73;21103;-76
2022/09/23 14:48:17;;;;;;;3.47;1.30;;;24.50;99.90;;;;;;1888114;75;21151;-76
2022/09/23 14:51:10;;;;;;;2.55;1.07;;;24.80;99.90;;;;;;1910145;73;21054;-76
2022/09/23 14:54:39;;;;;;;2.90;1.00;;;24.90;99.90;;;;;;1883369;75;21119;-77
2022/09/23 14:57:49;;;;;;;1.52;1.05;;;25.30;99.90;;;;;;1900357;73;21095;-77
2022/09/23 15:00:55;;;;;;;4.20;1.40;;;25.70;99.90;;;;;;1860265;75;21169;-77
2022/09/23 15:03:49;;;;;;;3.70;1.37;;;25.10;99.90;;;;;;1896752;75;21099;-77
2022/09/23 15:06:45;;;;;;;2.65;1.20;;;25.00;99.90;;;;;;1893998;75;21165;-76
2022/09/23 15:09:42;;;;;;;3.25;1.65;;;24.50;99.90;;;;;;1888932;75;21180;-77
2022/09/23 15:12:53;;;;;;;2.85;1.20;;;24.20;99.90;;;;;;1905309;75;21102;-77
2022/09/23 15:22:02;;;;;;;2.30;1.00;;;24.60;99.90;;;;;;1902705;75;21122;-77
2022/09/23 15:25:07;;;;;;;2.27;1.30;;;24.60;99.90;;;;;;1896217;75;21581;-76
2022/09/23 15:30:59;;;;;;;2.87;1.20;;;24.10;99.90;;;;;;1966500;72;22322;-76
2022/09/23 15:33:51;;;;;;;3.80;1.10;;;23.90;99.90;;;;;;1926699;73;21173;-79
2022/09/23 15:36:44;;;;;;;5.35;1.42;;;23.90;99.90;;;;;;1916824;75;21164;-76
2022/09/23 15:39:37;;;;;;;2.75;1.22;;;24.10;99.90;;;;;;1916565;75;21415;-76
2022/09/23 15:42:28;;;;;;;4.05;1.35;;;24.20;99.90;;;;;;1916515;73;21182;-76
2022/09/23 15:45:22;;;;;;;3.10;1.37;;;24.30;99.90;;;;;;1916424;75;21187;-76
2022/09/23 15:48:15;;;;;;;4.53;1.12;;;24.00;99.90;;;;;;1939190;73;21118;-76
2022/09/23 15:51:08;;;;;;;3.02;1.22;;;23.60;99.90;;;;;;1935337;73;21050;-76
2022/09/23 15:54:00;;;;;;;3.60;1.60;;;23.50;99.90;;;;;;1916688;75;21868;-76
2022/09/23 15:56:51;;;;;;;4.33;1.50;;;23.50;99.90;;;;;;1916748;75;21043;-76
2022/09/23 15:59:47;;;;;;;4.55;1.30;;;23.40;99.90;;;;;;1915822;73;21163;-77
2022/09/23 16:02:39;;;;;;;1.98;1.10;;;23.30;99.90;;;;;;1916740;75;21157;-77
2022/09/23 16:05:35;;;;;;;2.85;1.10;;;23.20;99.90;;;;;;1916676;75;21901;-76
2022/09/23 16:08:26;;;;;;;3.67;1.15;;;23.10;99.90;;;;;;1916752;75;21175;-77
2022/09/23 16:11:20;;;;;;;2.05;1.22;;;23.00;99.90;;;;;;1938654;73;21124;-77
2022/09/23 16:14:14;;;;;;;5.22;1.10;;;23.00;99.90;;;;;;1916206;75;21101;-77
2022/09/23 16:17:06;;;;;;;2.30;1.45;;;23.00;99.90;;;;;;1916390;73;21162;-77
2022/09/23 16:19:58;;;;;;;5.03;1.10;;;22.80;99.90;;;;;;1916737;75;21195;-77
2022/09/23 16:22:53;;;;;;;2.00;1.22;;;22.60;99.90;;;;;;1922161;73;21116;-77
2022/09/23 16:25:45;;;;;;;2.77;1.30;;;22.50;99.90;;;;;;1919418;73;21159;-77
2022/09/23 16:28:37;;;;;;;2.30;1.00;;;22.40;99.90;;;;;;1928722;73;21499;-77
2022/09/23 16:34:06;;;;;;;3.58;1.25;;;22.10;99.90;;;;;;1937880;72;22208;-77
2022/09/23 16:36:57;;;;;;;4.30;1.52;;;22.10;99.90;;;;;;1908729;75;21103;-77
2022/09/23 16:39:50;;;;;;;2.55;1.50;;;22.10;99.90;;;;;;1904953;75;21043;-77